KMLU

Monroe Regional Airport

Monroe, Louisiana, USA
METAR KMLU 120953Z AUTO 00000KT 10SM CLR 04/01 A3021 RMK AO2 SLP231 T00390006 $
Observed Flight Rules
Dec-12 @ 09:53 UTC (30 minutes ago) Visual Flight Rules
Visibility Clouds
10 miles
  • Clear skies
Temperatures Readings
Current 4°C / 39°F
Dewpoint 1°C / 34°F
Humidity 81%
Altimeter 30.21" Hg
Pressure 1023.1 hPa
Elevation 29
METAR KMLU 120953Z AUTO 00000KT 10SM CLR 04/01 A3021 RMK AO2 SLP231 T00390006 $
Observed Flight Rules
Dec-12 @ 09:53 UTC
(30 minutes ago)
VFR
Clouds
  • Clear skies
Temperature Dewpoint
4°C / 39°F 1°C / 34°F
Humidity Altimeter Pressure
81% 30.21" Hg 1023.1 hPa